Aloha, Washington
Current Conditions -  °F | °C
As of 9:34 PM on Wednesday 22 Oct 2014 (Local Time) from KHQM Reporting Station
Broken Clouds Broken Clouds  
Wind Chill: 55°   Ceiling: 7500
Heat Index: 55°   Visibility: 9mi
Dew Point: 51°   Wind: 17mph
Humidity: 86%   Direction: 220°SW
Pressure: 29.63"   Gusts: NA
Location:  47.1899°N, 124.112°W
Report Text: KHQM 230434Z AUTO 22015KT 9SM FEW022 SCT032 BKN075 13/11 A2963 RMK AO2 RAE34 P0002 T01280106
Loading
Personal Weather Stations






























Interactive Weather Map New forecast layout! Learn more

10-Day Weather Forecast

Advertisements
Track Severe Weather on mobile